sensor_id;sensor_type;location;lat;lon;timestamp;pressure;altitude;pressure_sealevel;temperature;humidity
4392;BME280;2210;51.938;8.488;2023-07-02T00:01:11;99563.13;;;17.30;100.00
4392;BME280;2210;51.938;8.488;2023-07-02T00:05:18;99562.06;;;17.12;100.00
4392;BME280;2210;51.938;8.488;2023-07-02T00:09:18;99560.63;;;17.15;100.00
4392;BME280;2210;51.938;8.488;2023-07-02T00:13:18;99561.63;;;17.05;100.00
4392;BME280;2210;51.938;8.488;2023-07-02T00:17:19;99545.50;;;17.02;100.00
4392;BME280;2210;51.938;8.488;2023-07-02T00:21:19;99549.41;;;17.01;100.00
4392;BME280;2210;51.938;8.488;2023-07-02T00:25:20;99552.97;;;17.07;100.00
4392;BME280;2210;51.938;8.488;2023-07-02T00:29:20;99552.44;;;17.05;100.00
4392;BME280;2210;51.938;8.488;2023-07-02T00:33:20;99559.97;;;17.04;100.00
4392;BME280;2210;51.938;8.488;2023-07-02T00:37:21;99557.69;;;17.06;100.00
4392;BME280;2210;51.938;8.488;2023-07-02T00:41:24;99543.25;;;17.04;100.00
4392;BME280;2210;51.938;8.488;2023-07-02T00:45:24;99539.34;;;17.05;100.00
4392;BME280;2210;51.938;8.488;2023-07-02T00:49:33;99539.53;;;17.09;100.00
4392;BME280;2210;51.938;8.488;2023-07-02T00:53:37;99531.28;;;17.03;100.00
4392;BME280;2210;51.938;8.488;2023-07-02T00:57:40;99541.06;;;17.01;100.00
4392;BME280;2210;51.938;8.488;2023-07-02T01:01:41;99526.03;;;17.02;100.00
4392;BME280;2210;51.938;8.488;2023-07-02T01:05:41;99533.16;;;17.08;100.00
4392;BME280;2210;51.938;8.488;2023-07-02T01:09:41;99527.28;;;17.10;100.00
4392;BME280;2210;51.938;8.488;2023-07-02T01:13:41;99545.00;;;17.00;100.00
4392;BME280;2210;51.938;8.488;2023-07-02T01:17:47;99536.72;;;16.95;100.00
4392;BME280;2210;51.938;8.488;2023-07-02T01:21:49;99545.00;;;17.00;100.00
4392;BME280;2210;51.938;8.488;2023-07-02T01:25:51;99531.69;;;16.78;100.00
4392;BME280;2210;51.938;8.488;2023-07-02T01:29:58;99540.19;;;16.86;100.00
4392;BME280;2210;51.938;8.488;2023-07-02T01:33:58;99540.88;;;16.78;100.00
4392;BME280;2210;51.938;8.488;2023-07-02T01:37:58;99533.22;;;16.89;100.00
4392;BME280;2210;51.938;8.488;2023-07-02T01:42:18;99528.38;;;16.95;100.00
4392;BME280;2210;51.938;8.488;2023-07-02T01:46:21;99529.00;;;16.92;100.00
4392;BME280;2210;51.938;8.488;2023-07-02T01:50:22;99529.00;;;16.92;100.00
4392;BME280;2210;51.938;8.488;2023-07-02T01:54:25;99526.25;;;16.86;100.00
4392;BME280;2210;51.938;8.488;2023-07-02T01:58:27;99519.50;;;16.93;100.00
4392;BME280;2210;51.938;8.488;2023-07-02T02:02:27;99528.72;;;16.88;100.00
4392;BME280;2210;51.938;8.488;2023-07-02T02:06:30;99527.91;;;16.88;100.00
4392;BME280;2210;51.938;8.488;2023-07-02T02:10:30;99542.31;;;16.76;100.00
4392;BME280;2210;51.938;8.488;2023-07-02T02:14:31;99534.06;;;16.84;100.00
4392;BME280;2210;51.938;8.488;2023-07-02T02:18:32;99537.66;;;16.90;100.00
4392;BME280;2210;51.938;8.488;2023-07-02T02:22:32;99540.34;;;16.95;100.00
4392;BME280;2210;51.938;8.488;2023-07-02T02:26:45;99531.25;;;16.90;100.00
4392;BME280;2210;51.938;8.488;2023-07-02T02:30:45;99535.13;;;16.89;100.00
4392;BME280;2210;51.938;8.488;2023-07-02T02:34:48;99543.97;;;16.96;100.00
4392;BME280;2210;51.938;8.488;2023-07-02T02:38:55;99539.88;;;16.88;100.00
4392;BME280;2210;51.938;8.488;2023-07-02T02:42:58;99539.88;;;16.88;100.00
4392;BME280;2210;51.938;8.488;2023-07-02T02:46:58;99540.44;;;16.90;100.00
4392;BME280;2210;51.938;8.488;2023-07-02T02:51:11;99542.53;;;16.79;100.00
4392;BME280;2210;51.938;8.488;2023-07-02T02:55:11;99538.00;;;16.83;100.00
4392;BME280;2210;51.938;8.488;2023-07-02T02:59:12;99535.63;;;16.77;100.00
4392;BME280;2210;51.938;8.488;2023-07-02T03:03:12;99531.28;;;16.84;100.00
4392;BME280;2210;51.938;8.488;2023-07-02T03:07:13;99530.25;;;16.80;100.00
4392;BME280;2210;51.938;8.488;2023-07-02T03:11:13;99534.63;;;16.86;100.00
4392;BME280;2210;51.938;8.488;2023-07-02T03:15:13;99542.75;;;16.83;100.00
4392;BME280;2210;51.938;8.488;2023-07-02T03:19:14;99537.16;;;16.83;100.00
4392;BME280;2210;51.938;8.488;2023-07-02T03:23:15;99539.22;;;16.77;100.00
4392;BME280;2210;51.938;8.488;2023-07-02T03:27:16;99525.38;;;16.72;100.00
4392;BME280;2210;51.938;8.488;2023-07-02T03:31:16;99545.81;;;16.81;100.00
4392;BME280;2210;51.938;8.488;2023-07-02T03:35:16;99539.22;;;16.77;100.00
4392;BME280;2210;51.938;8.488;2023-07-02T03:39:16;99543.97;;;16.77;100.00
4392;BME280;2210;51.938;8.488;2023-07-02T03:43:20;99543.03;;;16.81;100.00
4392;BME280;2210;51.938;8.488;2023-07-02T03:47:20;99541.47;;;16.75;100.00
4392;BME280;2210;51.938;8.488;2023-07-02T03:51:24;99542.00;;;16.77;100.00
4392;BME280;2210;51.938;8.488;2023-07-02T03:55:24;99543.03;;;16.81;100.00
4392;BME280;2210;51.938;8.488;2023-07-02T03:59:25;99547.63;;;16.72;100.00
4392;BME280;2210;51.938;8.488;2023-07-02T04:03:25;99552.59;;;16.75;100.00
4392;BME280;2210;51.938;8.488;2023-07-02T04:07:25;99566.44;;;16.80;100.00
4392;BME280;2210;51.938;8.488;2023-07-02T04:11:32;99568.72;;;16.78;100.00
4392;BME280;2210;51.938;8.488;2023-07-02T04:15:35;99589.56;;;16.81;100.00
4392;BME280;2210;51.938;8.488;2023-07-02T04:19:35;99592.66;;;16.79;100.00
4392;BME280;2210;51.938;8.488;2023-07-02T04:23:36;99602.88;;;16.65;100.00
4392;BME280;2210;51.938;8.488;2023-07-02T04:27:36;99606.69;;;16.69;100.00
4392;BME280;2210;51.938;8.488;2023-07-02T04:31:36;99610.16;;;16.61;100.00
4392;BME280;2210;51.938;8.488;2023-07-02T04:35:43;99618.06;;;16.54;100.00
4392;BME280;2210;51.938;8.488;2023-07-02T04:39:43;99629.19;;;16.54;100.00
4392;BME280;2210;51.938;8.488;2023-07-02T04:43:43;99623.22;;;16.60;100.00
4392;BME280;2210;51.938;8.488;2023-07-02T04:47:48;99632.50;;;16.56;100.00
4392;BME280;2210;51.938;8.488;2023-07-02T04:51:48;99630.38;;;16.47;100.00
4392;BME280;2210;51.938;8.488;2023-07-02T04:55:49;99643.63;;;16.56;100.00
4392;BME280;2210;51.938;8.488;2023-07-02T04:59:52;99648.19;;;16.46;100.00
4392;BME280;2210;51.938;8.488;2023-07-02T05:03:52;99650.97;;;16.46;100.00
4392;BME280;2210;51.938;8.488;2023-07-02T05:07:54;99653.00;;;16.41;100.00
4392;BME280;2210;51.938;8.488;2023-07-02T05:12:05;99656.53;;;16.46;100.00
4392;BME280;2210;51.938;8.488;2023-07-02T05:16:11;99661.97;;;16.57;100.00
4392;BME280;2210;51.938;8.488;2023-07-02T05:20:15;99662.38;;;16.69;100.00
4392;BME280;2210;51.938;8.488;2023-07-02T05:24:15;99663.03;;;16.80;100.00
4392;BME280;2210;51.938;8.488;2023-07-02T05:28:15;99675.06;;;16.75;100.00
4392;BME280;2210;51.938;8.488;2023-07-02T05:32:15;99676.22;;;16.74;100.00
4392;BME280;2210;51.938;8.488;2023-07-02T05:36:16;99679.75;;;16.80;100.00
4392;BME280;2210;51.938;8.488;2023-07-02T05:40:16;99683.50;;;16.70;100.00
4392;BME280;2210;51.938;8.488;2023-07-02T05:44:16;99688.34;;;16.83;100.00
4392;BME280;2210;51.938;8.488;2023-07-02T05:48:17;99695.09;;;16.77;100.00
4392;BME280;2210;51.938;8.488;2023-07-02T05:52:17;99693.22;;;16.73;100.00
4392;BME280;2210;51.938;8.488;2023-07-02T05:56:22;99689.94;;;16.90;100.00
4392;BME280;2210;51.938;8.488;2023-07-02T06:00:22;99696.63;;;17.27;100.00
4392;BME280;2210;51.938;8.488;2023-07-02T06:04:22;99699.69;;;17.77;100.00
4392;BME280;2210;51.938;8.488;2023-07-02T06:08:23;99697.06;;;18.00;100.00
4392;BME280;2210;51.938;8.488;2023-07-02T06:12:23;99716.44;;;17.77;100.00
4392;BME280;2210;51.938;8.488;2023-07-02T06:16:26;99710.88;;;17.91;100.00
4392;BME280;2210;51.938;8.488;2023-07-02T06:20:26;99707.63;;;18.03;100.00
4392;BME280;2210;51.938;8.488;2023-07-02T06:24:33;99710.34;;;18.36;100.00
4392;BME280;2210;51.938;8.488;2023-07-02T06:28:33;99705.38;;;18.47;100.00
4392;BME280;2210;51.938;8.488;2023-07-02T06:32:33;99703.63;;;18.37;100.00
4392;BME280;2210;51.938;8.488;2023-07-02T06:36:34;99711.56;;;18.58;97.70
4392;BME280;2210;51.938;8.488;2023-07-02T06:40:34;99708.06;;;18.38;95.85
4392;BME280;2210;51.938;8.488;2023-07-02T06:44:41;99713.53;;;18.43;89.04
4392;BME280;2210;51.938;8.488;2023-07-02T06:48:45;99721.81;;;18.48;92.28
4392;BME280;2210;51.938;8.488;2023-07-02T06:52:45;99718.81;;;18.59;87.61
4392;BME280;2210;51.938;8.488;2023-07-02T06:56:45;99727.78;;;18.28;84.98
4392;BME280;2210;51.938;8.488;2023-07-02T07:00:45;99737.09;;;18.23;85.17
4392;BME280;2210;51.938;8.488;2023-07-02T07:04:46;99732.25;;;18.29;83.65
4392;BME280;2210;51.938;8.488;2023-07-02T07:08:46;99734.31;;;18.65;83.53
4392;BME280;2210;51.938;8.488;2023-07-02T07:12:46;99736.16;;;18.83;80.12
4392;BME280;2210;51.938;8.488;2023-07-02T07:16:50;99736.38;;;18.87;83.62
4392;BME280;2210;51.938;8.488;2023-07-02T07:20:53;99743.19;;;19.09;78.72
4392;BME280;2210;51.938;8.488;2023-07-02T07:24:53;99740.81;;;18.74;73.40
4392;BME280;2210;51.938;8.488;2023-07-02T07:28:54;99752.09;;;18.97;75.44
4392;BME280;2210;51.938;8.488;2023-07-02T07:33:07;99757.44;;;19.21;72.16
4392;BME280;2210;51.938;8.488;2023-07-02T07:37:07;99750.63;;;19.13;74.29
4392;BME280;2210;51.938;8.488;2023-07-02T07:41:08;99758.91;;;18.77;73.26
4392;BME280;2210;51.938;8.488;2023-07-02T07:45:11;99766.03;;;18.69;80.44
4392;BME280;2210;51.938;8.488;2023-07-02T07:49:13;99764.28;;;18.73;76.65
4392;BME280;2210;51.938;8.488;2023-07-02T07:53:13;99749.91;;;18.80;73.29
4392;BME280;2210;51.938;8.488;2023-07-02T07:57:14;99747.28;;;19.11;71.59
4392;BME280;2210;51.938;8.488;2023-07-02T08:01:14;99759.03;;;19.36;70.34
4392;BME280;2210;51.938;8.488;2023-07-02T08:05:14;99756.00;;;19.46;69.88
4392;BME280;2210;51.938;8.488;2023-07-02T08:09:21;99756.13;;;19.64;69.28
4392;BME280;2210;51.938;8.488;2023-07-02T08:13:21;99761.28;;;19.70;65.16
4392;BME280;2210;51.938;8.488;2023-07-02T08:17:21;99773.53;;;19.38;61.75
4392;BME280;2210;51.938;8.488;2023-07-02T08:21:22;99773.94;;;19.45;61.87
4392;BME280;2210;51.938;8.488;2023-07-02T08:25:22;99779.13;;;19.61;61.54
4392;BME280;2210;51.938;8.488;2023-07-02T08:29:25;99780.22;;;19.51;58.38
4392;BME280;2210;51.938;8.488;2023-07-02T08:33:25;99783.84;;;19.01;59.57
4392;BME280;2210;51.938;8.488;2023-07-02T08:37:26;99783.72;;;19.20;62.54
4392;BME280;2210;51.938;8.488;2023-07-02T08:41:45;99786.28;;;19.67;60.03
4392;BME280;2210;51.938;8.488;2023-07-02T08:45:46;99800.50;;;19.06;58.91
4392;BME280;2210;51.938;8.488;2023-07-02T08:49:48;99798.94;;;19.28;58.52
4392;BME280;2210;51.938;8.488;2023-07-02T08:53:48;99807.69;;;19.35;56.16
4392;BME280;2210;51.938;8.488;2023-07-02T08:57:53;99813.16;;;18.90;55.67
4392;BME280;2210;51.938;8.488;2023-07-02T09:01:57;99810.44;;;18.98;56.12
4392;BME280;2210;51.938;8.488;2023-07-02T09:06:00;99811.25;;;19.27;53.18
4392;BME280;2210;51.938;8.488;2023-07-02T09:10:00;99814.97;;;19.08;52.59
4392;BME280;2210;51.938;8.488;2023-07-02T09:14:07;99816.34;;;19.47;53.26
4392;BME280;2210;51.938;8.488;2023-07-02T09:18:19;99815.72;;;19.50;53.98
4392;BME280;2210;51.938;8.488;2023-07-02T09:22:19;99822.03;;;19.19;51.25
4392;BME280;2210;51.938;8.488;2023-07-02T09:26:23;99828.13;;;19.08;54.40
4392;BME280;2210;51.938;8.488;2023-07-02T09:30:23;99823.44;;;19.31;50.97
4392;BME280;2210;51.938;8.488;2023-07-02T09:34:28;99815.97;;;19.40;50.86
4392;BME280;2210;51.938;8.488;2023-07-02T09:38:29;99818.09;;;19.07;50.49
4392;BME280;2210;51.938;8.488;2023-07-02T09:42:29;99835.03;;;19.24;53.81
4392;BME280;2210;51.938;8.488;2023-07-02T09:46:31;99826.16;;;19.59;50.46
4392;BME280;2210;51.938;8.488;2023-07-02T09:50:32;99818.53;;;19.87;51.10
4392;BME280;2210;51.938;8.488;2023-07-02T09:54:33;99825.50;;;19.39;49.89
4392;BME280;2210;51.938;8.488;2023-07-02T09:58:36;99823.31;;;19.86;50.56
4392;BME280;2210;51.938;8.488;2023-07-02T10:02:37;99832.53;;;19.73;51.46
4392;BME280;2210;51.938;8.488;2023-07-02T10:06:55;99835.78;;;19.66;52.58
4392;BME280;2210;51.938;8.488;2023-07-02T10:11:12;99844.00;;;19.49;51.79
4392;BME280;2210;51.938;8.488;2023-07-02T10:15:27;99853.81;;;19.60;51.76
4392;BME280;2210;51.938;8.488;2023-07-02T10:19:27;99852.25;;;19.82;52.11
4392;BME280;2210;51.938;8.488;2023-07-02T10:23:34;99848.97;;;19.88;49.41
4392;BME280;2210;51.938;8.488;2023-07-02T10:27:40;99857.38;;;19.88;51.37
4392;BME280;2210;51.938;8.488;2023-07-02T10:31:48;99854.34;;;19.99;51.03
4392;BME280;2210;51.938;8.488;2023-07-02T10:35:49;99855.72;;;20.10;51.62
4392;BME280;2210;51.938;8.488;2023-07-02T10:39:50;99850.69;;;20.21;52.55
4392;BME280;2210;51.938;8.488;2023-07-02T10:43:52;99837.47;;;20.35;51.30
4392;BME280;2210;51.938;8.488;2023-07-02T10:47:52;99850.78;;;20.30;49.11
4392;BME280;2210;51.938;8.488;2023-07-02T10:52:05;99834.91;;;20.79;47.61
4392;BME280;2210;51.938;8.488;2023-07-02T10:56:07;99837.13;;;21.00;47.89
4392;BME280;2210;51.938;8.488;2023-07-02T11:00:08;99824.94;;;21.13;46.17
4392;BME280;2210;51.938;8.488;2023-07-02T11:04:08;99839.53;;;20.52;47.44
4392;BME280;2210;51.938;8.488;2023-07-02T11:08:09;99840.44;;;20.08;49.68
4392;BME280;2210;51.938;8.488;2023-07-02T11:12:09;99846.88;;;20.71;49.86
4392;BME280;2210;51.938;8.488;2023-07-02T11:20:20;99853.03;;;20.82;50.42
4392;BME280;2210;51.938;8.488;2023-07-02T11:24:33;99855.34;;;20.80;49.08
4392;BME280;2210;51.938;8.488;2023-07-02T11:28:34;99852.34;;;20.76;50.32
4392;BME280;2210;51.938;8.488;2023-07-02T11:32:52;99860.88;;;20.17;50.36
4392;BME280;2210;51.938;8.488;2023-07-02T11:36:52;99864.41;;;20.23;53.14
4392;BME280;2210;51.938;8.488;2023-07-02T11:40:54;99868.53;;;20.02;51.15
4392;BME280;2210;51.938;8.488;2023-07-02T11:44:54;99862.81;;;20.08;53.04
4392;BME280;2210;51.938;8.488;2023-07-02T11:48:54;99855.09;;;20.67;52.82
4392;BME280;2210;51.938;8.488;2023-07-02T11:52:54;99856.44;;;21.01;51.23
4392;BME280;2210;51.938;8.488;2023-07-02T11:56:55;99858.31;;;20.83;50.20
4392;BME280;2210;51.938;8.488;2023-07-02T12:00:55;99863.88;;;20.43;51.39
4392;BME280;2210;51.938;8.488;2023-07-02T12:04:55;99861.78;;;20.58;48.56
4392;BME280;2210;51.938;8.488;2023-07-02T12:08:55;99855.91;;;20.99;49.22
4392;BME280;2210;51.938;8.488;2023-07-02T12:12:56;99847.38;;;21.13;50.82
4392;BME280;2210;51.938;8.488;2023-07-02T12:16:56;99871.63;;;20.69;49.55
4392;BME280;2210;51.938;8.488;2023-07-02T12:21:02;99871.00;;;20.27;51.83
4392;BME280;2210;51.938;8.488;2023-07-02T12:25:02;99869.50;;;20.52;50.23
4392;BME280;2210;51.938;8.488;2023-07-02T12:29:03;99864.75;;;20.84;50.96
4392;BME280;2210;51.938;8.488;2023-07-02T12:33:07;99865.38;;;20.81;47.30
4392;BME280;2210;51.938;8.488;2023-07-02T12:37:07;99857.75;;;21.04;48.24
4392;BME280;2210;51.938;8.488;2023-07-02T12:41:07;99868.91;;;20.95;48.89
4392;BME280;2210;51.938;8.488;2023-07-02T12:45:08;99863.75;;;20.80;50.57
4392;BME280;2210;51.938;8.488;2023-07-02T12:49:09;99873.63;;;20.77;50.63
4392;BME280;2210;51.938;8.488;2023-07-02T12:53:09;99873.06;;;20.98;49.40
4392;BME280;2210;51.938;8.488;2023-07-02T12:57:09;99878.09;;;21.27;47.08
4392;BME280;2210;51.938;8.488;2023-07-02T13:01:10;99870.84;;;21.35;48.10
4392;BME280;2210;51.938;8.488;2023-07-02T13:05:13;99871.53;;;21.41;48.20
4392;BME280;2210;51.938;8.488;2023-07-02T13:09:13;99885.81;;;21.21;46.05
4392;BME280;2210;51.938;8.488;2023-07-02T13:13:17;99886.13;;;21.11;47.99
4392;BME280;2210;51.938;8.488;2023-07-02T13:17:17;99887.72;;;21.52;50.55
4392;BME280;2210;51.938;8.488;2023-07-02T13:21:17;99870.63;;;21.80;46.83
4392;BME280;2210;51.938;8.488;2023-07-02T13:25:18;99881.94;;;21.49;45.20
4392;BME280;2210;51.938;8.488;2023-07-02T13:29:18;99889.41;;;21.04;45.38
4392;BME280;2210;51.938;8.488;2023-07-02T13:33:19;99893.41;;;21.12;47.01
4392;BME280;2210;51.938;8.488;2023-07-02T13:37:19;99893.47;;;21.47;49.29
4392;BME280;2210;51.938;8.488;2023-07-02T13:41:19;99897.66;;;21.59;47.50
4392;BME280;2210;51.938;8.488;2023-07-02T13:45:19;99893.25;;;21.93;44.58
4392;BME280;2210;51.938;8.488;2023-07-02T13:49:20;99888.66;;;21.39;43.80
4392;BME280;2210;51.938;8.488;2023-07-02T13:53:21;99892.31;;;21.39;44.23
4392;BME280;2210;51.938;8.488;2023-07-02T13:57:22;99900.22;;;21.37;45.39
4392;BME280;2210;51.938;8.488;2023-07-02T14:01:23;99894.25;;;21.97;45.89
4392;BME280;2210;51.938;8.488;2023-07-02T14:05:24;99891.44;;;22.14;45.72
4392;BME280;2210;51.938;8.488;2023-07-02T14:09:24;99891.56;;;21.74;45.02
4392;BME280;2210;51.938;8.488;2023-07-02T14:13:24;99898.94;;;21.52;45.38
4392;BME280;2210;51.938;8.488;2023-07-02T14:17:24;99896.03;;;21.75;45.49
4392;BME280;2210;51.938;8.488;2023-07-02T14:21:25;99894.06;;;22.19;46.60
4392;BME280;2210;51.938;8.488;2023-07-02T14:25:25;99898.34;;;21.73;44.39
4392;BME280;2210;51.938;8.488;2023-07-02T14:29:25;99892.88;;;21.59;44.49
4392;BME280;2210;51.938;8.488;2023-07-02T14:33:27;99894.97;;;21.45;46.42
4392;BME280;2210;51.938;8.488;2023-07-02T14:37:28;99905.97;;;21.32;47.22
4392;BME280;2210;51.938;8.488;2023-07-02T14:41:29;99905.94;;;21.64;49.15
4392;BME280;2210;51.938;8.488;2023-07-02T14:45:35;99901.34;;;21.85;48.20
4392;BME280;2210;51.938;8.488;2023-07-02T14:49:36;99891.09;;;21.81;48.56
4392;BME280;2210;51.938;8.488;2023-07-02T14:53:37;99890.13;;;21.85;46.72
4392;BME280;2210;51.938;8.488;2023-07-02T14:57:37;99885.47;;;21.72;48.97
4392;BME280;2210;51.938;8.488;2023-07-02T15:01:37;99891.94;;;21.81;49.77
4392;BME280;2210;51.938;8.488;2023-07-02T15:05:41;99881.50;;;21.64;48.24
4392;BME280;2210;51.938;8.488;2023-07-02T15:09:42;99888.38;;;21.49;47.82
4392;BME280;2210;51.938;8.488;2023-07-02T15:13:42;99898.75;;;21.40;48.65
4392;BME280;2210;51.938;8.488;2023-07-02T15:17:42;99891.31;;;21.44;48.24
4392;BME280;2210;51.938;8.488;2023-07-02T15:21:42;99875.06;;;21.72;47.02
4392;BME280;2210;51.938;8.488;2023-07-02T15:25:43;99881.44;;;21.38;47.17
4392;BME280;2210;51.938;8.488;2023-07-02T15:29:43;99871.59;;;21.09;47.55
4392;BME280;2210;51.938;8.488;2023-07-02T15:33:43;99869.03;;;21.30;50.09
4392;BME280;2210;51.938;8.488;2023-07-02T15:37:45;99880.78;;;21.41;49.00
4392;BME280;2210;51.938;8.488;2023-07-02T15:41:46;99888.16;;;21.28;49.22
4392;BME280;2210;51.938;8.488;2023-07-02T15:45:46;99881.00;;;21.13;49.38
4392;BME280;2210;51.938;8.488;2023-07-02T15:49:47;99893.94;;;21.32;47.87
4392;BME280;2210;51.938;8.488;2023-07-02T15:53:47;99871.38;;;21.37;45.96
4392;BME280;2210;51.938;8.488;2023-07-02T15:57:48;99884.19;;;21.20;47.97
4392;BME280;2210;51.938;8.488;2023-07-02T16:01:48;99889.22;;;21.01;49.62
4392;BME280;2210;51.938;8.488;2023-07-02T16:05:56;99896.75;;;20.92;49.44
4392;BME280;2210;51.938;8.488;2023-07-02T16:10:06;99891.75;;;21.20;50.45
4392;BME280;2210;51.938;8.488;2023-07-02T16:14:12;99892.94;;;21.19;50.54
4392;BME280;2210;51.938;8.488;2023-07-02T16:18:16;99892.28;;;21.31;48.83
4392;BME280;2210;51.938;8.488;2023-07-02T16:22:19;99888.03;;;21.42;49.45
4392;BME280;2210;51.938;8.488;2023-07-02T16:26:23;99888.00;;;21.33;49.94
4392;BME280;2210;51.938;8.488;2023-07-02T16:30:23;99883.94;;;20.99;51.01
4392;BME280;2210;51.938;8.488;2023-07-02T16:39:15;99890.66;;;20.89;51.72
4392;BME280;2210;51.938;8.488;2023-07-02T16:43:16;99894.44;;;20.85;52.75
4392;BME280;2210;51.938;8.488;2023-07-02T16:47:20;99888.78;;;20.76;53.38
4392;BME280;2210;51.938;8.488;2023-07-02T16:51:23;99883.69;;;20.55;49.41
4392;BME280;2210;51.938;8.488;2023-07-02T16:55:26;99890.31;;;20.60;50.81
4392;BME280;2210;51.938;8.488;2023-07-02T16:59:31;99886.97;;;20.71;51.47
4392;BME280;2210;51.938;8.488;2023-07-02T17:03:43;99888.31;;;20.83;49.70
4392;BME280;2210;51.938;8.488;2023-07-02T17:07:43;99883.25;;;20.94;51.02
4392;BME280;2210;51.938;8.488;2023-07-02T17:11:43;99889.78;;;20.80;52.76
4392;BME280;2210;51.938;8.488;2023-07-02T17:15:44;99886.72;;;20.68;51.21
4392;BME280;2210;51.938;8.488;2023-07-02T17:19:51;99886.50;;;20.78;51.88
4392;BME280;2210;51.938;8.488;2023-07-02T17:23:54;99885.72;;;20.86;50.10
4392;BME280;2210;51.938;8.488;2023-07-02T17:28:05;99882.72;;;20.83;51.61
4392;BME280;2210;51.938;8.488;2023-07-02T17:32:07;99887.84;;;20.89;52.33
4392;BME280;2210;51.938;8.488;2023-07-02T17:36:23;99882.38;;;20.84;50.36
4392;BME280;2210;51.938;8.488;2023-07-02T17:40:27;99891.44;;;20.81;50.57
4392;BME280;2210;51.938;8.488;2023-07-02T17:44:39;99886.97;;;20.71;51.81
4392;BME280;2210;51.938;8.488;2023-07-02T17:48:40;99879.94;;;20.60;52.48
4392;BME280;2210;51.938;8.488;2023-07-02T17:52:40;99880.22;;;20.50;50.09
4392;BME280;2210;51.938;8.488;2023-07-02T17:56:40;99884.94;;;20.41;50.22
4392;BME280;2210;51.938;8.488;2023-07-02T18:00:44;99886.38;;;20.38;50.26
4392;BME280;2210;51.938;8.488;2023-07-02T18:04:45;99878.75;;;20.30;51.72
4392;BME280;2210;51.938;8.488;2023-07-02T18:08:48;99886.38;;;20.15;52.06
4392;BME280;2210;51.938;8.488;2023-07-02T18:12:54;99889.94;;;20.07;51.63
4392;BME280;2210;51.938;8.488;2023-07-02T18:16:57;99888.94;;;20.03;50.98
4392;BME280;2210;51.938;8.488;2023-07-02T18:20:58;99889.13;;;20.07;50.65
4392;BME280;2210;51.938;8.488;2023-07-02T18:25:08;99887.25;;;20.02;52.30
4392;BME280;2210;51.938;8.488;2023-07-02T18:29:08;99883.97;;;20.00;52.79
4392;BME280;2210;51.938;8.488;2023-07-02T18:33:08;99895.91;;;19.92;52.94
4392;BME280;2210;51.938;8.488;2023-07-02T18:37:21;99893.72;;;19.88;52.75
4392;BME280;2210;51.938;8.488;2023-07-02T18:41:23;99892.53;;;19.81;52.74
4392;BME280;2210;51.938;8.488;2023-07-02T18:45:30;99894.88;;;19.74;54.25
4392;BME280;2210;51.938;8.488;2023-07-02T18:49:34;99889.81;;;19.76;55.34
4392;BME280;2210;51.938;8.488;2023-07-02T18:58:01;99899.59;;;19.50;55.18
4392;BME280;2210;51.938;8.488;2023-07-02T19:02:19;99904.59;;;19.40;55.41
4392;BME280;2210;51.938;8.488;2023-07-02T19:06:32;99898.28;;;19.34;56.58
4392;BME280;2210;51.938;8.488;2023-07-02T19:11:18;99905.00;;;19.33;55.95
4392;BME280;2210;51.938;8.488;2023-07-02T19:15:46;99897.88;;;19.27;56.19
4392;BME280;2210;51.938;8.488;2023-07-02T19:19:48;99892.09;;;19.09;54.52
4392;BME280;2210;51.938;8.488;2023-07-02T19:24:08;99885.97;;;19.07;53.10
4392;BME280;2210;51.938;8.488;2023-07-02T19:28:35;99888.16;;;19.10;54.04
4392;BME280;2210;51.938;8.488;2023-07-02T19:32:46;99893.31;;;19.03;52.86
4392;BME280;2210;51.938;8.488;2023-07-02T19:36:55;99892.19;;;19.04;54.64
4392;BME280;2210;51.938;8.488;2023-07-02T19:40:56;99891.38;;;19.03;54.67
4392;BME280;2210;51.938;8.488;2023-07-02T19:49:41;99898.66;;;18.85;56.40
4392;BME280;2210;51.938;8.488;2023-07-02T19:53:50;99901.16;;;18.87;56.27
4392;BME280;2210;51.938;8.488;2023-07-02T19:58:17;99904.94;;;18.77;55.88
4392;BME280;2210;51.938;8.488;2023-07-02T20:07:15;99906.56;;;18.50;54.61
4392;BME280;2210;51.938;8.488;2023-07-02T20:11:19;99907.16;;;18.47;54.72
4392;BME280;2210;51.938;8.488;2023-07-02T20:15:19;99910.25;;;18.46;55.55
4392;BME280;2210;51.938;8.488;2023-07-02T20:19:20;99906.31;;;18.33;54.72
4392;BME280;2210;51.938;8.488;2023-07-02T20:23:24;99913.53;;;18.34;54.92
4392;BME280;2210;51.938;8.488;2023-07-02T20:27:25;99911.88;;;18.33;56.08
4392;BME280;2210;51.938;8.488;2023-07-02T20:31:28;99912.94;;;18.37;56.35
4392;BME280;2210;51.938;8.488;2023-07-02T20:35:37;99907.97;;;18.34;56.95
4392;BME280;2210;51.938;8.488;2023-07-02T20:39:42;99904.63;;;18.32;56.29
4392;BME280;2210;51.938;8.488;2023-07-02T20:43:46;99899.06;;;18.32;56.13
4392;BME280;2210;51.938;8.488;2023-07-02T20:47:51;99906.38;;;18.28;56.41
4392;BME280;2210;51.938;8.488;2023-07-02T20:51:57;99908.44;;;18.22;57.19
4392;BME280;2210;51.938;8.488;2023-07-02T20:55:57;99910.38;;;18.22;57.41
4392;BME280;2210;51.938;8.488;2023-07-02T20:59:59;99911.59;;;18.15;58.47
4392;BME280;2210;51.938;8.488;2023-07-02T21:03:59;99916.34;;;18.15;58.87
4392;BME280;2210;51.938;8.488;2023-07-02T21:08:00;99913.84;;;18.13;58.74
4392;BME280;2210;51.938;8.488;2023-07-02T21:12:04;99906.41;;;18.09;57.83
4392;BME280;2210;51.938;8.488;2023-07-02T21:16:04;99912.50;;;18.11;58.48
4392;BME280;2210;51.938;8.488;2023-07-02T21:20:05;99907.22;;;18.09;59.59
4392;BME280;2210;51.938;8.488;2023-07-02T21:24:06;99913.84;;;18.13;58.51
4392;BME280;2210;51.938;8.488;2023-07-02T21:28:06;99913.72;;;18.05;59.40
4392;BME280;2210;51.938;8.488;2023-07-02T21:32:07;99913.56;;;17.96;59.53
4392;BME280;2210;51.938;8.488;2023-07-02T21:36:07;99919.63;;;18.03;59.92
4392;BME280;2210;51.938;8.488;2023-07-02T21:40:09;99911.94;;;17.95;60.02
4392;BME280;2210;51.938;8.488;2023-07-02T21:44:13;99923.66;;;17.92;59.18
4392;BME280;2210;51.938;8.488;2023-07-02T21:48:13;99923.38;;;17.93;61.74
4392;BME280;2210;51.938;8.488;2023-07-02T21:52:13;99916.44;;;17.91;60.02
4392;BME280;2210;51.938;8.488;2023-07-02T21:56:17;99919.91;;;17.82;60.23
4392;BME280;2210;51.938;8.488;2023-07-02T22:00:21;99918.22;;;17.81;61.49
4392;BME280;2210;51.938;8.488;2023-07-02T22:04:30;99909.31;;;17.79;61.38
4392;BME280;2210;51.938;8.488;2023-07-02T22:08:30;99904.28;;;17.81;62.01
4392;BME280;2210;51.938;8.488;2023-07-02T22:12:33;99905.94;;;17.82;60.86
4392;BME280;2210;51.938;8.488;2023-07-02T22:16:36;99915.38;;;17.86;61.09